Time;durP1;ratioP1;P1;durP2;ratioP2;P2;SDS_P1;SDS_P2;PMS_P1;PMS_P2;Temp;Humidity;BMP_temperature;BMP_pressure;BME280_temperature;BME280_humidity;BME280_pressure;Samples;Min_cycle;Max_cycle;Signal;HPM_P1;HPM_P2
2022/04/11 00:02:26;;;;;;;5.00;3.47;;;15.10;60.60;;;;;;10270648;28;20651;-84
2022/04/11 00:07:29;;;;;;;4.73;3.17;;;15.10;60.40;;;;;;10270963;28;20240;-84
2022/04/11 00:12:34;;;;;;;5.03;3.03;;;15.10;60.40;;;;;;10288087;28;20269;-84
2022/04/11 00:17:37;;;;;;;5.57;4.07;;;15.20;60.20;;;;;;10288653;28;20215;-84
2022/04/11 00:22:39;;;;;;;4.73;3.03;;;15.20;60.00;;;;;;10270446;28;20666;-84
2022/04/11 00:27:42;;;;;;;6.00;3.10;;;15.40;59.80;;;;;;10287760;28;20256;-84
2022/04/11 00:32:45;;;;;;;4.50;3.17;;;15.50;59.50;;;;;;10270376;28;20202;-84
2022/04/11 00:37:47;;;;;;;6.13;3.80;;;15.40;59.40;;;;;;10270776;28;20209;-84
2022/04/11 00:42:50;;;;;;;3.93;2.97;;;15.50;59.20;;;;;;10253389;28;20704;-84
2022/04/11 00:47:52;;;;;;;5.00;3.93;;;15.50;59.00;;;;;;10287038;28;20722;-84
2022/04/11 00:52:56;;;;;;;3.70;2.50;;;14.80;60.30;;;;;;10287293;28;20615;-83
2022/04/11 00:57:59;;;;;;;5.23;3.33;;;15.40;59.50;;;;;;10287008;28;20245;-84
2022/04/11 01:03:02;;;;;;;5.43;3.07;;;15.30;59.60;;;;;;10269594;28;20304;-84
2022/04/11 01:08:07;;;;;;;3.13;2.20;;;15.40;59.40;;;;;;10286717;28;20382;-84
2022/04/11 01:13:09;;;;;;;3.47;2.60;;;15.40;59.30;;;;;;10268120;28;20632;-84
2022/04/11 01:18:12;;;;;;;5.43;2.53;;;15.40;59.20;;;;;;10269935;28;20242;-84
2022/04/11 01:23:15;;;;;;;2.93;2.20;;;15.30;59.40;;;;;;10286309;28;20812;-84
2022/04/11 01:28:22;;;;;;;4.23;2.60;;;15.30;59.50;;;;;;10274345;28;20241;-84
2022/04/11 01:33:28;;;;;;;3.97;2.87;;;15.20;59.80;;;;;;10276277;28;20237;-84
2022/04/11 01:38:34;;;;;;;4.30;2.30;;;15.10;59.90;;;;;;10275392;28;20237;-84
2022/04/11 01:43:37;;;;;;;4.07;2.13;;;15.10;60.10;;;;;;10260176;28;20598;-84
2022/04/11 01:48:41;;;;;;;4.90;2.50;;;14.90;60.40;;;;;;10277452;28;20209;-84
2022/04/11 01:53:44;;;;;;;4.17;2.80;;;14.70;60.80;;;;;;10275474;28;20261;-84
2022/04/11 01:58:46;;;;;;;3.93;2.43;;;14.90;60.60;;;;;;10275349;28;20276;-84
2022/04/11 02:03:49;;;;;;;3.77;2.60;;;15.10;60.30;;;;;;10275904;28;20590;-84
2022/04/11 02:08:51;;;;;;;5.03;2.23;;;15.10;60.10;;;;;;10274539;28;20276;-84
2022/04/11 02:13:54;;;;;;;2.77;2.03;;;15.20;59.90;;;;;;10275667;28;20292;-84
2022/04/11 02:18:57;;;;;;;2.67;2.00;;;15.20;59.80;;;;;;10258825;28;20257;-84
2022/04/11 02:24:00;;;;;;;3.50;1.90;;;15.20;59.90;;;;;;10258504;28;20210;-84
2022/04/11 02:29:02;;;;;;;3.60;2.20;;;15.20;59.90;;;;;;10292191;28;20993;-84
2022/04/11 02:34:05;;;;;;;2.43;1.70;;;15.20;59.90;;;;;;10273883;28;20685;-84
2022/04/11 02:39:08;;;;;;;4.73;2.10;;;15.20;59.80;;;;;;10273105;28;20284;-84
2022/04/11 02:44:11;;;;;;;3.10;1.73;;;15.20;59.70;;;;;;10273206;28;20629;-83
2022/04/11 02:49:14;;;;;;;2.90;1.90;;;15.20;59.80;;;;;;10271131;28;20300;-83
2022/04/11 02:54:27;;;;;;;3.27;2.27;;;15.30;59.70;;;;;;10273476;28;20256;-84
2022/04/11 02:59:32;;;;;;;3.17;2.13;;;15.20;59.80;;;;;;10291129;28;20253;-84
2022/04/11 03:04:34;;;;;;;4.60;1.80;;;15.20;59.90;;;;;;10272824;28;20257;-84
2022/04/11 03:09:43;;;;;;;4.80;2.13;;;15.20;59.70;;;;;;10273252;28;20324;-84
2022/04/11 03:14:49;;;;;;;2.13;1.77;;;15.20;59.60;;;;;;10273329;28;20592;-83
2022/04/11 03:19:52;;;;;;;5.20;1.63;;;15.20;59.80;;;;;;10273065;28;20289;-84
2022/04/11 03:24:55;;;;;;;2.87;1.73;;;15.20;59.80;;;;;;10274856;28;20209;-84
2022/04/11 03:29:58;;;;;;;2.13;1.53;;;15.30;59.70;;;;;;10290712;28;20841;-84
2022/04/11 03:35:01;;;;;;;2.40;1.87;;;15.30;59.60;;;;;;10272167;28;20585;-84
2022/04/11 03:40:06;;;;;;;1.97;1.47;;;15.30;59.50;;;;;;10271841;28;20241;-84
2022/04/11 03:45:11;;;;;;;3.10;2.10;;;15.30;59.50;;;;;;10269793;28;20295;-84
2022/04/11 03:50:17;;;;;;;3.23;1.87;;;15.30;59.40;;;;;;10308977;28;20296;-84
2022/04/11 03:55:21;;;;;;;3.43;1.80;;;15.30;59.40;;;;;;10269786;28;20249;-83
2022/04/11 04:00:26;;;;;;;3.30;1.83;;;15.30;59.60;;;;;;10269818;28;20252;-84
2022/04/11 04:05:47;;;;;;;3.30;2.30;;;15.20;59.80;;;;;;10269925;28;20244;-84
2022/04/11 04:10:54;;;;;;;2.40;1.60;;;15.20;59.90;;;;;;10269370;28;20276;-84
2022/04/11 04:15:57;;;;;;;4.37;1.90;;;15.10;59.90;;;;;;10269246;28;20276;-84
2022/04/11 04:21:02;;;;;;;3.10;1.70;;;15.00;60.00;;;;;;10269920;28;20249;-84
2022/04/11 04:26:05;;;;;;;3.97;1.70;;;15.10;60.10;;;;;;10269248;28;20210;-84
2022/04/11 04:31:07;;;;;;;2.77;1.67;;;15.20;59.90;;;;;;10252835;28;20272;-84
2022/04/11 04:36:12;;;;;;;2.43;1.73;;;15.20;59.70;;;;;;10269395;28;20555;-84
2022/04/11 04:41:15;;;;;;;2.87;1.33;;;15.20;59.70;;;;;;10269399;28;20257;-84
2022/04/11 04:46:18;;;;;;;3.10;1.70;;;15.20;59.70;;;;;;10270402;28;20229;-84
2022/04/11 04:51:24;;;;;;;2.00;1.40;;;15.30;59.70;;;;;;10269531;28;20241;-85
2022/04/11 04:56:32;;;;;;;3.53;1.90;;;15.40;59.40;;;;;;10269216;28;20241;-84
2022/04/11 05:01:40;;;;;;;5.47;1.43;;;15.40;59.30;;;;;;10257271;28;20308;-84
2022/04/11 05:06:45;;;;;;;2.63;1.57;;;15.50;59.30;;;;;;10267554;28;20630;-84
2022/04/11 05:11:49;;;;;;;2.23;1.50;;;15.40;59.30;;;;;;10266525;28;20288;-84
2022/04/11 05:16:57;;;;;;;3.80;1.83;;;15.40;59.00;;;;;;10296494;28;20297;-84
2022/04/11 05:22:01;;;;;;;3.17;1.67;;;15.20;58.50;;;;;;10271745;28;20312;-84
2022/04/11 05:27:04;;;;;;;4.60;2.03;;;15.20;58.80;;;;;;10271825;28;20234;-84
2022/04/11 05:32:08;;;;;;;3.30;1.53;;;15.10;58.80;;;;;;10264448;28;20225;-84
2022/04/11 05:37:12;;;;;;;2.73;2.10;;;15.00;59.10;;;;;;10285802;28;20711;-84
2022/04/11 05:42:15;;;;;;;2.73;1.73;;;15.10;58.90;;;;;;10293280;28;20253;-84
2022/04/11 05:47:17;;;;;;;4.83;1.90;;;15.30;58.60;;;;;;10260544;28;20233;-84
2022/04/11 05:52:30;;;;;;;4.53;2.07;;;15.20;58.80;;;;;;10257662;28;20257;-84
2022/04/11 05:57:34;;;;;;;3.00;1.50;;;15.40;58.60;;;;;;10272658;28;20633;-84
2022/04/11 06:02:37;;;;;;;2.50;1.53;;;15.30;58.90;;;;;;10307286;28;20626;-84
2022/04/11 06:07:43;;;;;;;3.60;1.80;;;15.40;58.50;;;;;;10275094;28;20268;-84
2022/04/11 06:12:45;;;;;;;3.47;1.77;;;15.50;58.40;;;;;;10292116;28;20241;-84
2022/04/11 06:17:48;;;;;;;2.50;1.77;;;15.20;58.80;;;;;;10292427;28;20584;-84
2022/04/11 06:22:51;;;;;;;7.00;1.83;;;15.30;58.80;;;;;;10274874;28;20336;-84
2022/04/11 06:27:54;;;;;;;2.50;1.87;;;14.90;58.60;;;;;;10273838;28;20233;-84
2022/04/11 06:32:57;;;;;;;1.73;1.23;;;15.10;59.10;;;;;;10258195;28;20209;-83
2022/04/11 06:38:00;;;;;;;3.37;1.50;;;15.30;58.90;;;;;;10274188;28;20633;-83
2022/04/11 06:43:02;;;;;;;4.60;2.10;;;15.20;58.90;;;;;;10273684;28;20629;-83
2022/04/11 06:48:16;;;;;;;4.13;1.90;;;15.40;58.60;;;;;;10271923;28;20229;-85
2022/04/11 06:53:20;;;;;;;2.57;1.53;;;15.30;59.00;;;;;;10254435;28;20387;-85
2022/04/11 06:58:22;;;;;;;3.60;1.90;;;15.50;58.80;;;;;;10287672;28;20270;-86
2022/04/11 07:03:25;;;;;;;6.47;1.77;;;15.60;58.60;;;;;;10271573;28;20646;-84
2022/04/11 07:08:27;;;;;;;4.90;1.80;;;15.10;59.00;;;;;;10289356;28;20289;-84
2022/04/11 07:13:30;;;;;;;2.07;1.60;;;14.60;60.90;;;;;;10271705;28;20237;-85
2022/04/11 07:18:33;;;;;;;5.07;1.87;;;15.30;59.50;;;;;;10288873;28;20315;-84
2022/04/11 07:23:36;;;;;;;5.73;2.83;;;15.70;58.50;;;;;;10287878;28;20308;-84
2022/04/11 07:28:39;;;;;;;3.43;2.60;;;15.50;58.20;;;;;;10268908;28;20237;-85
2022/04/11 07:33:42;;;;;;;1.93;1.40;;;14.10;60.20;;;;;;10270465;28;20390;-84
2022/04/11 07:38:45;;;;;;;2.50;2.13;;;14.80;61.10;;;;;;10271249;28;20234;-83
2022/04/11 07:43:47;;;;;;;3.37;1.80;;;12.60;64.70;;;;;;10287323;28;20694;-83
2022/04/11 07:48:50;;;;;;;2.27;1.70;;;12.80;63.90;;;;;;10287567;28;20277;-83
2022/04/11 07:53:52;;;;;;;7.57;3.33;;;14.10;63.00;;;;;;10292620;28;20209;-92
2022/04/11 07:58:56;;;;;;;3.00;1.93;;;13.30;59.70;;;;;;10260178;28;20248;-91
2022/04/11 08:03:58;;;;;;;2.53;1.60;;;14.00;59.70;;;;;;10259652;28;20603;-92
2022/04/11 08:09:01;;;;;;;4.33;2.63;;;14.20;59.10;;;;;;10278692;28;20233;-92
2022/04/11 08:14:05;;;;;;;7.20;2.00;;;14.60;58.00;;;;;;10301362;28;20245;-91
2022/04/11 08:19:07;;;;;;;5.20;2.40;;;14.70;57.90;;;;;;10280620;28;20205;-87
2022/04/11 08:24:10;;;;;;;14.60;4.53;;;14.10;59.50;;;;;;10294265;28;20257;-86
2022/04/11 08:29:12;;;;;;;2.43;1.50;;;14.70;59.50;;;;;;10281539;28;20218;-86
2022/04/11 08:34:15;;;;;;;3.53;1.40;;;15.20;58.80;;;;;;10295714;28;20210;-87
2022/04/11 08:39:17;;;;;;;5.00;1.90;;;15.80;57.80;;;;;;10292064;28;20583;-87
2022/04/11 08:44:21;;;;;;;4.97;1.23;;;16.30;57.20;;;;;;10290794;28;20253;-87
2022/04/11 08:49:24;;;;;;;4.13;1.60;;;16.30;57.20;;;;;;10294111;28;20253;-88
2022/04/11 08:54:28;;;;;;;2.47;1.30;;;16.70;56.60;;;;;;10276186;28;20210;-87
2022/04/11 08:59:34;;;;;;;4.17;1.97;;;16.30;57.40;;;;;;10294934;28;20241;-87
2022/04/11 09:04:51;;;;;;;3.73;1.83;;;16.10;57.50;;;;;;10288044;28;20261;-86
2022/04/11 09:09:58;;;;;;;1.50;1.23;;;16.40;57.80;;;;;;10268258;28;20266;-87
2022/04/11 09:15:05;;;;;;;6.03;2.27;;;16.70;57.00;;;;;;10239177;28;20643;-87
2022/04/11 09:20:14;;;;;;;6.87;2.40;;;16.50;53.50;;;;;;10268904;28;20237;-87
2022/04/11 09:25:21;;;;;;;8.27;2.80;;;10.10;74.30;;;;;;10268736;28;20233;-87
2022/04/11 09:30:27;;;;;;;3.97;2.47;;;14.90;67.20;;;;;;10285782;28;20241;-87
2022/04/11 09:35:33;;;;;;;5.40;1.67;;;15.90;63.20;;;;;;10285639;28;20238;-87
2022/04/11 09:40:36;;;;;;;4.27;1.57;;;16.70;61.20;;;;;;10268510;28;20285;-87
2022/04/11 09:45:40;;;;;;;3.13;1.50;;;16.60;60.70;;;;;;10268757;28;20237;-86
2022/04/11 09:50:44;;;;;;;2.33;1.77;;;;;;;;;;10275475;28;20760;-87
2022/04/11 09:55:50;;;;;;;3.63;2.10;;;17.10;58.70;;;;;;10293582;28;20243;-86
2022/04/11 10:00:53;;;;;;;4.37;1.80;;;17.00;59.60;;;;;;10274016;28;20264;-86
2022/04/11 10:05:57;;;;;;;4.70;1.70;;;17.00;59.50;;;;;;10295741;28;20209;-87
2022/04/11 10:11:01;;;;;;;2.20;1.70;;;17.00;59.40;;;;;;10291474;28;20319;-85
2022/04/11 10:16:06;;;;;;;5.67;1.80;;;17.10;58.70;;;;;;10291918;28;20603;-85
2022/04/11 10:21:10;;;;;;;2.10;1.33;;;16.90;59.70;;;;;;10273802;28;20331;-85
2022/04/11 10:26:44;;;;;;;2.83;1.73;;;16.80;59.10;;;;;;10291378;28;20270;-85
2022/04/11 10:32:09;;;;;;;9.30;1.90;;;17.00;58.90;;;;;;10273572;28;20302;-85
2022/04/11 10:37:13;;;;;;;2.03;1.37;;;16.60;60.10;;;;;;10289960;28;20268;-85
2022/04/11 10:42:24;;;;;;;1.83;1.43;;;16.90;58.80;;;;;;10290664;28;20292;-86
2022/04/11 10:47:31;;;;;;;5.13;1.70;;;16.90;58.70;;;;;;10290717;28;20209;-86
2022/04/11 10:52:36;;;;;;;3.03;1.47;;;16.40;59.80;;;;;;10289950;28;20241;-85
2022/04/11 10:58:04;;;;;;;3.90;1.80;;;16.70;59.30;;;;;;10289294;28;20346;-86
2022/04/11 11:03:09;;;;;;;3.57;1.90;;;16.90;58.60;;;;;;10126271;29;20260;-86
2022/04/11 11:08:16;;;;;;;1.33;1.20;;;17.00;58.50;;;;;;10114243;29;20654;-85
2022/04/11 11:13:38;;;;;;;2.17;1.53;;;17.10;58.30;;;;;;10126389;29;20249;-86
2022/04/11 11:19:04;;;;;;;2.20;1.33;;;17.00;58.30;;;;;;10110470;29;20313;-85
2022/04/11 11:24:12;;;;;;;1.60;1.10;;;17.10;58.10;;;;;;10110840;29;20288;-86
2022/04/11 11:29:35;;;;;;;3.00;1.63;;;17.20;57.70;;;;;;10125736;29;20258;-86
2022/04/11 11:34:39;;;;;;;2.33;1.30;;;17.10;58.10;;;;;;10085312;29;20249;-86
2022/04/11 11:39:43;;;;;;;2.50;1.40;;;17.00;58.30;;;;;;10236830;28;20238;-86
2022/04/11 11:44:48;;;;;;;3.20;1.53;;;16.90;58.50;;;;;;10255357;28;20444;-86
2022/04/11 11:49:50;;;;;;;1.77;1.20;;;16.80;58.40;;;;;;10272303;28;20648;-86
2022/04/11 11:54:53;;;;;;;1.60;1.20;;;16.90;58.40;;;;;;10288385;28;20245;-86
2022/04/11 12:00:03;;;;;;;3.37;1.50;;;16.80;58.40;;;;;;10270948;28;20242;-86
2022/04/11 12:05:19;;;;;;;2.70;1.20;;;16.60;58.40;;;;;;10287220;28;20307;-85
2022/04/11 12:10:21;;;;;;;3.73;1.70;;;16.60;58.60;;;;;;10287347;28;20261;-86
2022/04/11 12:15:29;;;;;;;4.00;2.50;;;13.30;63.10;;;;;;10269764;28;20232;-85
2022/04/11 12:20:33;;;;;;;5.30;2.47;;;12.90;67.00;;;;;;10290573;28;20198;-87
2022/04/11 12:25:41;;;;;;;3.73;1.27;;;12.10;72.30;;;;;;10288228;28;20650;-87
2022/04/11 12:30:46;;;;;;;3.77;1.40;;;14.30;65.60;;;;;;10272578;28;20213;-86
2022/04/11 12:36:09;;;;;;;3.00;1.50;;;15.80;61.50;;;;;;10277051;28;20217;-87
2022/04/11 12:41:36;;;;;;;5.37;2.33;;;16.00;60.70;;;;;;10230069;29;20295;-86
2022/04/11 12:46:39;;;;;;;3.13;1.73;;;15.60;57.10;;;;;;10289618;28;20213;-90
2022/04/11 12:51:43;;;;;;;5.10;1.50;;;14.70;60.40;;;;;;10271948;28;20209;-92
2022/04/11 12:56:49;;;;;;;3.93;1.43;;;15.30;58.90;;;;;;10273704;28;20592;-93
2022/04/11 13:01:53;;;;;;;4.13;1.97;;;15.60;58.40;;;;;;10271669;28;20620;-92
2022/04/11 13:06:56;;;;;;;3.37;1.33;;;15.60;58.30;;;;;;10272293;28;20217;-92
2022/04/11 13:11:59;;;;;;;5.37;1.40;;;15.70;58.10;;;;;;10271803;28;20257;-92
2022/04/11 13:22:29;;;;;;;4.03;1.73;;;15.60;58.30;;;;;;10292219;28;20308;-92
2022/04/11 13:27:32;;;;;;;2.43;1.30;;;15.80;57.40;;;;;;10286607;28;20571;-93
2022/04/11 13:32:35;;;;;;;3.27;1.20;;;16.00;57.40;;;;;;10289570;28;20237;-92
2022/04/11 13:37:38;;;;;;;1.40;1.03;;;15.90;57.60;;;;;;10305016;28;20206;-93
2022/04/11 13:42:42;;;;;;;2.23;1.30;;;15.90;57.60;;;;;;10286917;28;20234;-93
2022/04/11 13:48:04;;;;;;;2.00;1.33;;;15.90;57.60;;;;;;10278036;28;20214;-93
2022/04/11 13:53:07;;;;;;;2.00;1.17;;;15.50;57.70;;;;;;10180345;29;20304;-92
2022/04/11 13:58:11;;;;;;;3.67;1.30;;;15.40;58.20;;;;;;10150176;29;20224;-92
2022/04/11 14:03:15;;;;;;;3.13;1.37;;;15.70;57.90;;;;;;10148946;29;20239;-93
2022/04/11 14:08:22;;;;;;;3.63;1.47;;;15.60;58.00;;;;;;10148150;29;20275;-93
2022/04/11 14:13:25;;;;;;;2.53;1.10;;;15.80;57.50;;;;;;10164830;29;20244;-92
2022/04/11 14:18:27;;;;;;;2.30;1.40;;;15.40;57.80;;;;;;10168146;29;20278;-92
2022/04/11 14:23:31;;;;;;;1.70;1.23;;;13.10;62.00;;;;;;10155002;29;20232;-92
2022/04/11 14:28:35;;;;;;;81.53;7.13;;;13.50;63.30;;;;;;10220102;28;20217;-82
2022/04/11 14:33:38;;;;;;;36.67;7.23;;;13.20;62.80;;;;;;10279635;28;20268;-83
2022/04/11 14:38:42;;;;;;;48.60;5.00;;;15.00;56.70;;;;;;10303906;28;20285;-84
2022/04/11 14:43:45;;;;;;;24.80;3.37;;;15.00;56.80;;;;;;10310747;28;20280;-85
2022/04/11 14:48:48;;;;;;;2.17;1.93;;;15.90;53.90;;;;;;10286662;28;20201;-84
2022/04/11 14:53:50;;;;;;;14.33;2.10;;;14.60;51.80;;;;;;10274017;28;20207;-82
2022/04/11 14:58:53;;;;;;;11.07;2.10;;;14.40;54.60;;;;;;10258061;28;20693;-81
2022/04/11 15:03:55;;;;;;;5.20;1.70;;;15.20;58.10;;;;;;10271533;28;20642;-82
2022/04/11 15:08:58;;;;;;;7.17;1.90;;;15.30;53.70;;;;;;10290536;28;20261;-82
2022/04/11 15:14:00;;;;;;;13.87;2.80;;;16.30;56.60;;;;;;10291457;28;20208;-83
2022/04/11 15:19:03;;;;;;;7.73;1.73;;;17.50;54.40;;;;;;10274504;28;20206;-82
2022/04/11 15:24:06;;;;;;;4.70;1.67;;;16.00;55.40;;;;;;10290961;28;20302;-82
2022/04/11 15:29:09;;;;;;;5.70;1.67;;;16.40;54.90;;;;;;10290631;28;20241;-82
2022/04/11 15:34:11;;;;;;;8.50;3.47;;;16.80;55.60;;;;;;10273837;28;20260;-81
2022/04/11 15:39:21;;;;;;;3.87;1.90;;;17.30;54.90;;;;;;10276799;28;20276;-82
2022/04/11 15:44:25;;;;;;;9.47;2.37;;;14.40;51.30;;;;;;10288135;28;20750;-82
2022/04/11 15:49:27;;;;;;;7.70;1.83;;;14.80;61.20;;;;;;10271570;28;20233;-82
2022/04/11 15:54:30;;;;;;;4.07;1.43;;;16.80;56.90;;;;;;10289059;28;20206;-82
2022/04/11 15:59:33;;;;;;;4.00;1.63;;;17.20;54.90;;;;;;10288774;28;20644;-82
2022/04/11 16:04:35;;;;;;;4.30;1.90;;;16.30;56.30;;;;;;10271937;28;20319;-82
2022/04/11 16:09:38;;;;;;;6.63;1.30;;;16.40;57.20;;;;;;10288668;28;20321;-82
2022/04/11 16:14:41;;;;;;;4.67;1.97;;;16.70;56.80;;;;;;10270734;28;20611;-82
2022/04/11 16:19:43;;;;;;;5.17;3.93;;;15.10;51.50;;;;;;10288301;28;20292;-82
2022/04/11 16:24:46;;;;;;;5.93;2.67;;;11.90;56.40;;;;;;10270567;28;20273;-82
2022/04/11 16:29:50;;;;;;;14.07;12.67;;;12.70;58.60;;;;;;10270254;28;20282;-82
2022/04/11 16:34:52;;;;;;;3.33;1.73;;;11.60;60.60;;;;;;10287702;28;20284;-82
2022/04/11 16:40:15;;;;;;;3.63;1.73;;;12.30;65.60;;;;;;10269946;28;20971;-82
2022/04/11 16:45:17;;;;;;;2.73;1.27;;;13.10;66.80;;;;;;10270481;28;20262;-82
2022/04/11 16:50:20;;;;;;;14.43;7.93;;;12.90;66.90;;;;;;10283965;28;20674;-84
2022/04/11 16:55:23;;;;;;;3.93;1.33;;;13.90;58.10;;;;;;10288398;28;20225;-87
2022/04/11 17:00:32;;;;;;;4.23;2.63;;;13.90;64.60;;;;;;10278268;28;20254;-91
2022/04/11 17:05:35;;;;;;;5.10;2.73;;;14.70;58.10;;;;;;10280958;28;20315;-91
2022/04/11 17:10:37;;;;;;;5.70;3.33;;;14.40;58.00;;;;;;10283849;28;20234;-90
2022/04/11 17:21:03;;;;;;;25.03;12.37;;;14.50;57.40;;;;;;10282265;28;20703;-89
2022/04/11 17:26:07;;;;;;;8.87;4.50;;;10.50;66.90;;;;;;10273541;28;20265;-89
2022/04/11 17:31:10;;;;;;;10.67;4.47;;;13.10;67.60;;;;;;10276279;28;20300;-89
2022/04/11 17:36:14;;;;;;;7.50;4.13;;;14.10;64.60;;;;;;10260883;28;20245;-90
2022/04/11 17:41:17;;;;;;;7.60;4.13;;;14.70;63.10;;;;;;10259160;28;20339;-90
2022/04/11 17:46:19;;;;;;;4.93;3.50;;;15.10;62.40;;;;;;10276186;28;20303;-90
2022/04/11 17:51:22;;;;;;;7.13;3.43;;;15.20;62.00;;;;;;10276398;28;20741;-90
2022/04/11 17:56:28;;;;;;;9.33;3.80;;;15.20;62.00;;;;;;10281915;28;20242;-89
2022/04/11 18:01:31;;;;;;;17.90;9.30;;;15.30;61.90;;;;;;10285986;28;20213;-89
2022/04/11 18:06:36;;;;;;;9.07;5.37;;;14.60;62.60;;;;;;10278797;28;20289;-90
2022/04/11 18:11:40;;;;;;;7.57;4.10;;;13.90;65.10;;;;;;10258055;29;20261;-89
2022/04/11 18:16:44;;;;;;;8.60;4.30;;;14.30;65.00;;;;;;10283557;28;20212;-90
2022/04/11 18:21:46;;;;;;;7.17;4.47;;;14.90;63.60;;;;;;10280157;28;20781;-90
2022/04/11 18:26:49;;;;;;;8.73;4.67;;;15.30;62.90;;;;;;10299937;28;20235;-88
2022/04/11 18:31:52;;;;;;;8.77;4.10;;;15.30;62.60;;;;;;10285457;28;20201;-89
2022/04/11 18:36:58;;;;;;;7.57;3.93;;;15.50;62.40;;;;;;10282439;28;20264;-88
2022/04/11 18:42:02;;;;;;;18.20;9.23;;;15.50;62.20;;;;;;10284805;28;20265;-88
2022/04/11 18:47:05;;;;;;;10.23;6.23;;;15.00;62.00;;;;;;10283680;28;20233;-88
2022/04/11 18:52:09;;;;;;;25.20;10.43;;;14.20;64.50;;;;;;10304204;28;20357;-87
2022/04/11 18:57:12;;;;;;;23.67;10.87;;;13.20;66.90;;;;;;10277019;28;20209;-88
2022/04/11 19:02:14;;;;;;;43.20;17.27;;;12.60;69.10;;;;;;10271981;28;20769;-89
2022/04/11 19:07:17;;;;;;;15.07;8.00;;;12.10;70.40;;;;;;10272325;28;20320;-89
2022/04/11 19:12:20;;;;;;;19.37;8.67;;;12.00;71.90;;;;;;10287597;28;20250;-89
2022/04/11 19:17:23;;;;;;;15.50;6.87;;;12.00;71.70;;;;;;10288712;28;20241;-87
2022/04/11 19:22:26;;;;;;;29.17;10.07;;;11.80;73.10;;;;;;10271112;28;20293;-87
2022/04/11 19:27:37;;;;;;;16.27;8.40;;;11.90;72.30;;;;;;10270105;28;20326;-87
2022/04/11 19:32:46;;;;;;;42.70;17.00;;;11.50;73.50;;;;;;10288630;28;20729;-87
2022/04/11 19:37:48;;;;;;;31.67;14.47;;;10.70;72.70;;;;;;10288140;28;20328;-87
2022/04/11 19:42:51;;;;;;;9.07;5.63;;;9.90;75.70;;;;;;10287861;28;20210;-87
2022/04/11 19:53:14;;;;;;;9.37;5.70;;;10.80;75.70;;;;;;10287617;28;20243;-87
2022/04/11 19:58:17;;;;;;;12.80;5.97;;;11.60;76.10;;;;;;10287063;28;20741;-87
2022/04/11 20:03:19;;;;;;;8.17;5.40;;;12.10;73.60;;;;;;10268991;28;20253;-87
2022/04/11 20:08:22;;;;;;;9.63;5.73;;;12.30;72.80;;;;;;10261361;28;20679;-86
2022/04/11 20:13:24;;;;;;;8.33;5.37;;;12.10;72.90;;;;;;10229003;29;20633;-87
2022/04/11 20:18:27;;;;;;;8.87;6.17;;;12.00;73.60;;;;;;10230255;29;20289;-87
2022/04/11 20:23:29;;;;;;;9.57;5.37;;;12.10;72.50;;;;;;10229252;29;20250;-86
2022/04/11 20:28:34;;;;;;;5.87;4.37;;;11.90;73.40;;;;;;10248543;29;20293;-86
2022/04/11 20:33:37;;;;;;;14.90;8.13;;;12.50;73.00;;;;;;10248991;28;20263;-86
2022/04/11 20:38:39;;;;;;;8.27;4.57;;;12.40;71.80;;;;;;10222597;29;20281;-86
2022/04/11 20:43:42;;;;;;;8.40;4.93;;;13.10;70.70;;;;;;10221184;29;20633;-87
2022/04/11 20:48:44;;;;;;;16.17;8.63;;;13.40;69.80;;;;;;10213561;29;20277;-86
2022/04/11 20:53:47;;;;;;;36.70;17.20;;;13.30;68.70;;;;;;10229085;29;20299;-88
2022/04/11 20:58:50;;;;;;;31.10;16.77;;;11.30;69.20;;;;;;10213094;29;20247;-87
2022/04/11 21:03:53;;;;;;;10.43;6.00;;;9.90;76.10;;;;;;10230246;29;20312;-87
2022/04/11 21:08:55;;;;;;;14.73;8.13;;;11.00;77.90;;;;;;10256770;28;20261;-87
2022/04/11 21:13:58;;;;;;;10.43;6.10;;;11.70;73.90;;;;;;10228473;29;20247;-87
2022/04/11 21:19:00;;;;;;;12.30;7.23;;;11.70;74.10;;;;;;10225632;29;20277;-87
2022/04/11 21:24:03;;;;;;;11.07;6.80;;;12.30;73.00;;;;;;10212555;29;20806;-87
2022/04/11 21:29:05;;;;;;;10.10;6.27;;;12.40;71.80;;;;;;10267047;28;20296;-87
2022/04/11 21:34:08;;;;;;;12.23;6.50;;;12.10;72.40;;;;;;10237579;29;20650;-87
2022/04/11 21:39:10;;;;;;;16.43;9.57;;;12.00;73.30;;;;;;10229215;29;20250;-87
2022/04/11 21:44:13;;;;;;;15.57;10.33;;;11.70;72.90;;;;;;10234348;28;20264;-88
2022/04/11 21:49:15;;;;;;;15.30;9.37;;;11.50;73.60;;;;;;10238752;29;20245;-87
2022/04/11 21:54:18;;;;;;;11.97;7.23;;;12.00;73.00;;;;;;10259514;29;20302;-88
2022/04/11 21:59:20;;;;;;;14.47;9.30;;;11.70;73.80;;;;;;10236997;28;20234;-87
2022/04/11 22:04:23;;;;;;;10.53;6.67;;;12.40;72.20;;;;;;10253432;29;20277;-87
2022/04/11 22:09:31;;;;;;;11.77;6.57;;;11.80;73.50;;;;;;10233487;28;20247;-89
2022/04/11 22:14:33;;;;;;;10.20;5.80;;;12.50;71.80;;;;;;10234743;29;20633;-89
2022/04/11 22:19:37;;;;;;;12.83;7.17;;;12.90;70.30;;;;;;10252523;29;20282;-89
2022/04/11 22:24:39;;;;;;;12.80;7.50;;;12.00;71.40;;;;;;10235321;29;20246;-89
2022/04/11 22:29:42;;;;;;;13.07;8.53;;;11.10;74.60;;;;;;10235190;29;20248;-89
2022/04/11 22:34:44;;;;;;;10.80;6.67;;;11.30;73.90;;;;;;10240156;29;20235;-89
2022/04/11 22:39:47;;;;;;;11.17;6.00;;;11.00;75.70;;;;;;10228623;29;20247;-90
2022/04/11 22:44:49;;;;;;;8.57;5.13;;;11.20;75.40;;;;;;10251849;29;20248;-89
2022/04/11 22:49:52;;;;;;;12.30;8.23;;;11.20;75.00;;;;;;10234729;29;20258;-90
2022/04/11 22:54:55;;;;;;;13.27;7.90;;;11.10;74.60;;;;;;10251995;28;20972;-90
2022/04/11 22:59:58;;;;;;;9.97;6.13;;;11.10;75.20;;;;;;10234300;29;20250;-90
2022/04/11 23:05:00;;;;;;;8.37;5.57;;;10.90;76.60;;;;;;10233476;29;20268;-90
2022/04/11 23:10:03;;;;;;;14.87;9.13;;;11.40;75.10;;;;;;10253918;28;20325;-90
2022/04/11 23:15:07;;;;;;;18.60;10.40;;;11.40;73.40;;;;;;10291362;28;21037;-90
2022/04/11 23:20:10;;;;;;;18.90;11.53;;;11.00;73.20;;;;;;10291192;28;20324;-89
2022/04/11 23:25:16;;;;;;;18.10;11.50;;;10.50;75.80;;;;;;10289992;28;20652;-90
2022/04/11 23:30:20;;;;;;;16.27;8.70;;;10.30;76.90;;;;;;10272017;28;20213;-90
2022/04/11 23:35:22;;;;;;;17.40;10.47;;;10.50;77.40;;;;;;10272112;28;20239;-90
2022/04/11 23:45:46;;;;;;;22.27;13.00;;;10.70;76.60;;;;;;10289198;28;20253;-90
2022/04/11 23:50:49;;;;;;;14.63;8.83;;;10.70;75.10;;;;;;10271723;28;20264;-90
2022/04/11 23:55:52;;;;;;;16.53;9.43;;;10.60;76.90;;;;;;10288663;28;20249;-89
